Time;durP1;ratioP1;P1;durP2;ratioP2;P2;SDS_P1;SDS_P2;PMS_P1;PMS_P2;Temp;Humidity;BMP_temperature;BMP_pressure;BME280_temperature;BME280_humidity;BME280_pressure;Samples;Min_cycle;Max_cycle;Signal;HPM_P1;HPM_P2
2021/08/20 00:00:57;;;;;;;8.57;6.03;;;17.10;59.20;;;;;;5051026;28;20758;-70
2021/08/20 00:03:23;;;;;;;10.38;6.32;;;17.10;58.90;;;;;;5051189;28;20377;-70
2021/08/20 00:05:48;;;;;;;8.30;6.40;;;17.00;59.70;;;;;;5051247;28;20463;-71
2021/08/20 00:08:14;;;;;;;9.80;6.00;;;16.90;60.50;;;;;;5050934;28;20400;-70
2021/08/20 00:10:39;;;;;;;12.13;6.60;;;17.00;60.10;;;;;;5051155;28;20683;-70
2021/08/20 00:13:05;;;;;;;7.28;5.75;;;16.90;61.10;;;;;;5050693;28;20499;-70
2021/08/20 00:15:31;;;;;;;7.78;6.00;;;16.90;60.40;;;;;;5050846;28;20421;-70
2021/08/20 00:17:57;;;;;;;9.52;6.43;;;16.90;59.30;;;;;;5050603;28;20432;-70
2021/08/20 00:20:23;;;;;;;9.90;6.43;;;16.90;59.70;;;;;;5050916;28;20385;-71
2021/08/20 00:22:49;;;;;;;9.80;6.10;;;16.80;60.40;;;;;;5051012;28;20373;-71
2021/08/20 00:25:15;;;;;;;8.10;5.80;;;16.80;61.20;;;;;;5051693;28;20776;-71
2021/08/20 00:27:41;;;;;;;8.38;6.25;;;16.70;63.00;;;;;;5050774;28;20417;-71
2021/08/20 00:30:08;;;;;;;12.00;6.55;;;16.70;62.80;;;;;;5051077;28;20870;-70
2021/08/20 00:32:37;;;;;;;11.32;7.15;;;16.60;62.70;;;;;;5096133;22;20467;-76
2021/08/20 00:35:04;;;;;;;10.13;6.33;;;16.60;63.00;;;;;;5113214;28;20389;-76
2021/08/20 00:37:29;;;;;;;14.25;5.63;;;16.50;64.10;;;;;;5111602;28;20364;-76
2021/08/20 00:39:56;;;;;;;10.13;6.60;;;16.50;64.40;;;;;;5113150;28;20463;-76
2021/08/20 00:42:21;;;;;;;13.23;6.90;;;16.50;63.20;;;;;;5112840;28;20376;-75
2021/08/20 00:44:47;;;;;;;9.02;6.57;;;16.50;63.60;;;;;;5113466;28;20380;-76
2021/08/20 00:47:12;;;;;;;9.10;6.50;;;16.60;62.20;;;;;;5094082;28;20370;-75
2021/08/20 00:49:38;;;;;;;8.20;6.80;;;16.70;61.20;;;;;;5091891;28;20506;-75
2021/08/20 00:52:04;;;;;;;10.20;6.60;;;16.70;60.50;;;;;;5102142;28;20381;-76
2021/08/20 00:54:30;;;;;;;10.30;6.80;;;16.90;58.90;;;;;;5113005;28;20391;-76
2021/08/20 00:56:56;;;;;;;11.65;6.53;;;16.90;59.00;;;;;;5094990;28;20381;-76
2021/08/20 00:59:25;;;;;;;12.20;6.90;;;16.90;58.80;;;;;;5112433;28;20408;-75
2021/08/20 01:01:51;;;;;;;10.75;6.50;;;16.80;58.40;;;;;;5092998;28;20443;-75
2021/08/20 01:04:16;;;;;;;10.02;6.93;;;17.00;56.50;;;;;;5111118;28;20408;-74
2021/08/20 01:06:42;;;;;;;11.95;7.28;;;17.00;56.70;;;;;;5110987;28;20376;-76
2021/08/20 01:09:09;;;;;;;11.90;6.90;;;16.80;58.00;;;;;;5111054;28;20387;-76
2021/08/20 01:11:34;;;;;;;10.60;7.00;;;16.80;58.30;;;;;;5110842;28;20401;-75
2021/08/20 01:14:00;;;;;;;12.13;7.00;;;16.80;58.30;;;;;;5110831;28;20377;-76
2021/08/20 01:16:26;;;;;;;11.05;6.60;;;16.80;58.50;;;;;;5111020;28;20418;-74
2021/08/20 01:18:52;;;;;;;10.55;7.30;;;16.80;58.20;;;;;;5110407;28;20396;-76
2021/08/20 01:21:20;;;;;;;9.53;6.50;;;16.80;58.90;;;;;;5112208;28;20456;-75
2021/08/20 01:24:05;;;;;;;9.70;6.40;;;16.80;57.20;;;;;;5110974;28;20376;-77
2021/08/20 01:26:32;;;;;;;11.02;6.65;;;16.80;57.90;;;;;;5111004;28;20372;-74
2021/08/20 01:28:59;;;;;;;9.45;7.28;;;16.70;57.80;;;;;;5110480;28;20387;-75
2021/08/20 01:31:24;;;;;;;11.65;7.30;;;16.70;58.00;;;;;;5111071;28;20392;-76
2021/08/20 01:33:50;;;;;;;13.10;7.50;;;16.70;59.00;;;;;;5111777;28;20388;-76
2021/08/20 01:36:16;;;;;;;8.63;7.03;;;16.70;58.40;;;;;;5111163;28;20380;-76
2021/08/20 01:38:53;;;;;;;10.95;7.15;;;16.70;58.70;;;;;;5111088;28;20468;-77
2021/08/20 01:41:22;;;;;;;12.02;7.45;;;16.70;58.50;;;;;;5110568;28;20418;-76
2021/08/20 01:43:48;;;;;;;11.20;7.43;;;16.80;57.50;;;;;;5110316;28;20392;-76
2021/08/20 01:46:14;;;;;;;11.57;7.10;;;16.70;58.00;;;;;;5100071;28;20374;-76
2021/08/20 01:48:49;;;;;;;13.77;7.57;;;16.70;58.40;;;;;;5089788;28;20378;-77
2021/08/20 01:51:15;;;;;;;12.05;7.70;;;16.70;58.40;;;;;;5093775;28;20387;-77
2021/08/20 01:53:43;;;;;;;10.55;7.97;;;16.70;58.80;;;;;;5110166;28;20403;-76
2021/08/20 01:56:19;;;;;;;10.33;7.50;;;16.60;59.40;;;;;;5110333;28;20465;-76
2021/08/20 01:58:46;;;;;;;8.90;7.35;;;16.50;60.50;;;;;;5109955;28;20432;-77
2021/08/20 02:01:12;;;;;;;10.63;7.50;;;16.50;61.10;;;;;;5115900;28;20380;-76
2021/08/20 02:03:38;;;;;;;11.52;7.70;;;16.40;61.30;;;;;;5095487;28;20380;-75
2021/08/20 02:06:04;;;;;;;11.30;8.70;;;16.40;61.60;;;;;;5113940;28;20373;-76
2021/08/20 02:08:29;;;;;;;13.18;8.45;;;16.40;62.40;;;;;;5113616;28;20413;-77
2021/08/20 02:10:55;;;;;;;13.83;9.10;;;16.30;63.00;;;;;;5113845;28;20403;-76
2021/08/20 02:13:22;;;;;;;10.33;8.20;;;16.20;63.80;;;;;;5117688;28;20472;-77
2021/08/20 02:15:48;;;;;;;12.60;8.38;;;16.30;63.80;;;;;;5121642;28;20865;-77
2021/08/20 02:18:14;;;;;;;10.13;8.53;;;16.20;64.50;;;;;;5120136;28;20411;-77
2021/08/20 02:20:40;;;;;;;22.40;10.80;;;16.20;64.80;;;;;;5113732;28;20436;-76
2021/08/20 02:23:07;;;;;;;16.13;10.60;;;16.20;63.90;;;;;;5113487;28;20372;-76
2021/08/20 02:25:33;;;;;;;17.77;11.23;;;16.20;64.30;;;;;;5113664;28;20385;-76
2021/08/20 02:27:58;;;;;;;14.87;11.10;;;16.20;64.80;;;;;;5113166;28;20380;-76
2021/08/20 02:30:24;;;;;;;15.90;10.50;;;16.20;65.70;;;;;;5113423;28;20372;-76
2021/08/20 02:32:50;;;;;;;15.60;11.20;;;16.30;64.50;;;;;;5113837;28;20410;-76
2021/08/20 02:35:15;;;;;;;21.50;11.50;;;16.30;64.10;;;;;;5114728;28;20379;-77
2021/08/20 02:37:41;;;;;;;18.70;12.17;;;16.20;64.60;;;;;;5114601;28;20417;-76
2021/08/20 02:40:07;;;;;;;19.33;12.52;;;16.10;65.60;;;;;;5114969;28;20385;-75
2021/08/20 02:42:32;;;;;;;22.33;13.20;;;16.10;66.70;;;;;;5115384;28;20395;-76
2021/08/20 02:44:58;;;;;;;19.98;12.85;;;16.00;67.40;;;;;;5116050;28;20741;-78
2021/08/20 02:47:23;;;;;;;16.98;12.75;;;15.90;68.80;;;;;;5096131;28;20382;-78
2021/08/20 02:49:49;;;;;;;17.53;12.70;;;15.80;70.10;;;;;;5077383;28;20394;-77
2021/08/20 02:52:15;;;;;;;20.73;13.67;;;15.90;70.10;;;;;;5107568;28;20868;-76
2021/08/20 02:54:40;;;;;;;21.40;13.37;;;15.70;70.90;;;;;;5117051;28;20885;-78
2021/08/20 02:57:06;;;;;;;18.50;13.13;;;15.80;70.70;;;;;;5114439;28;20478;-77
2021/08/20 02:59:32;;;;;;;18.90;12.70;;;15.70;70.90;;;;;;5113914;28;20432;-76
2021/08/20 03:01:58;;;;;;;21.20;14.30;;;15.50;72.70;;;;;;5112806;28;20730;-75
2021/08/20 03:04:25;;;;;;;20.52;13.80;;;15.50;74.60;;;;;;5112875;28;20437;-75
2021/08/20 03:06:51;;;;;;;20.52;14.70;;;15.60;73.20;;;;;;5112877;28;20381;-76
2021/08/20 03:09:18;;;;;;;22.50;13.93;;;15.50;73.20;;;;;;5112658;28;20387;-76
2021/08/20 03:11:44;;;;;;;18.77;14.20;;;15.50;74.00;;;;;;5094854;28;20396;-76
2021/08/20 03:14:10;;;;;;;23.30;15.52;;;15.50;73.60;;;;;;5113167;28;20381;-76
2021/08/20 03:16:36;;;;;;;25.73;16.13;;;15.50;73.80;;;;;;5112734;28;20391;-77
2021/08/20 03:19:01;;;;;;;23.30;15.50;;;15.40;74.50;;;;;;5112952;28;20396;-77
2021/08/20 03:21:27;;;;;;;23.30;15.50;;;15.40;74.70;;;;;;5112508;28;20381;-76
2021/08/20 03:23:53;;;;;;;23.80;16.02;;;15.40;74.80;;;;;;5112479;28;20468;-77
2021/08/20 03:26:18;;;;;;;25.90;16.60;;;15.40;75.00;;;;;;5112827;28;20380;-75
2021/08/20 03:28:44;;;;;;;21.90;15.80;;;15.30;74.30;;;;;;5112248;28;20937;-76
2021/08/20 03:31:09;;;;;;;24.17;15.70;;;15.40;70.90;;;;;;5112946;28;20380;-77
2021/08/20 03:33:35;;;;;;;27.08;15.50;;;15.40;70.20;;;;;;5114642;28;20402;-76
2021/08/20 03:36:00;;;;;;;23.27;14.63;;;15.40;70.40;;;;;;5112406;28;20405;-75
2021/08/20 03:38:26;;;;;;;26.37;14.93;;;15.40;69.70;;;;;;5110795;28;20732;-76
2021/08/20 03:40:52;;;;;;;20.70;14.10;;;15.50;68.30;;;;;;5111222;28;20729;-75
2021/08/20 03:43:17;;;;;;;23.83;13.80;;;15.50;67.70;;;;;;5111702;28;20376;-76
2021/08/20 03:45:43;;;;;;;19.23;12.85;;;15.50;66.10;;;;;;5106703;28;20386;-76
2021/08/20 03:48:08;;;;;;;20.63;13.33;;;15.40;67.30;;;;;;5096356;28;20368;-74
2021/08/20 03:50:34;;;;;;;22.23;12.70;;;15.40;67.60;;;;;;5111574;28;20381;-76
2021/08/20 03:52:59;;;;;;;18.93;12.70;;;15.40;68.00;;;;;;5112019;28;20437;-75
2021/08/20 03:55:25;;;;;;;16.00;12.20;;;15.50;65.90;;;;;;5103139;28;20389;-76
2021/08/20 03:57:53;;;;;;;18.92;12.50;;;15.50;64.60;;;;;;5097336;28;20392;-76
2021/08/20 04:00:19;;;;;;;19.37;12.43;;;15.60;64.10;;;;;;5096543;28;20393;-77
2021/08/20 04:02:45;;;;;;;21.07;12.80;;;15.50;64.10;;;;;;5085131;28;20405;-75
2021/08/20 04:05:10;;;;;;;17.20;12.10;;;15.60;63.80;;;;;;5091621;28;20390;-76
2021/08/20 04:07:36;;;;;;;22.73;13.70;;;15.70;61.50;;;;;;5091682;28;20810;-76
2021/08/20 04:10:02;;;;;;;19.70;13.20;;;15.60;62.70;;;;;;5093215;28;20478;-77
2021/08/20 04:12:27;;;;;;;20.80;13.00;;;15.60;63.40;;;;;;5091910;28;20382;-76
2021/08/20 04:14:53;;;;;;;20.73;12.40;;;15.60;63.80;;;;;;5091805;28;20429;-76
2021/08/20 04:17:18;;;;;;;21.70;12.47;;;15.60;64.10;;;;;;5097261;28;20374;-77
2021/08/20 04:19:44;;;;;;;19.20;13.80;;;15.60;63.70;;;;;;5098741;28;20481;-77
2021/08/20 04:22:10;;;;;;;17.05;13.13;;;15.60;64.00;;;;;;5097337;28;20420;-76
2021/08/20 04:24:35;;;;;;;20.83;14.70;;;15.70;64.10;;;;;;5092538;28;20389;-76
2021/08/20 04:27:01;;;;;;;23.77;13.97;;;15.60;64.30;;;;;;5091807;28;20439;-76
2021/08/20 04:29:27;;;;;;;23.00;13.93;;;15.70;63.50;;;;;;5073632;28;20405;-76
2021/08/20 04:31:54;;;;;;;21.17;14.07;;;15.80;62.80;;;;;;5091600;28;20414;-76
2021/08/20 04:34:20;;;;;;;22.15;15.40;;;15.90;63.50;;;;;;5091434;28;20390;-76
2021/08/20 04:36:45;;;;;;;25.92;16.05;;;15.90;63.40;;;;;;5091338;28;20753;-76
2021/08/20 04:39:11;;;;;;;26.10;15.00;;;15.90;63.20;;;;;;5091760;28;20477;-77
2021/08/20 04:41:36;;;;;;;29.63;15.87;;;16.00;61.80;;;;;;5091699;28;20410;-78
2021/08/20 04:44:02;;;;;;;25.67;14.67;;;16.10;61.90;;;;;;5092696;28;20385;-77
2021/08/20 04:46:27;;;;;;;21.38;14.20;;;16.10;61.90;;;;;;5091207;28;20382;-77
2021/08/20 04:48:53;;;;;;;23.83;13.95;;;16.20;61.00;;;;;;5091404;28;20385;-76
2021/08/20 04:51:18;;;;;;;22.77;12.93;;;16.10;61.00;;;;;;5090548;28;20378;-75
2021/08/20 04:53:44;;;;;;;22.03;14.00;;;16.10;61.60;;;;;;5090250;28;20374;-75
2021/08/20 04:56:10;;;;;;;22.27;12.90;;;16.10;62.70;;;;;;5092560;28;20782;-78
2021/08/20 04:58:35;;;;;;;22.20;13.00;;;16.10;62.50;;;;;;5091892;28;20689;-77
2021/08/20 05:01:02;;;;;;;20.25;13.18;;;16.30;61.40;;;;;;5093315;28;20427;-77
2021/08/20 05:03:28;;;;;;;20.90;13.38;;;16.30;60.50;;;;;;5110978;28;20392;-77
2021/08/20 05:05:54;;;;;;;18.90;12.55;;;16.30;60.40;;;;;;5111991;28;20733;-77
2021/08/20 05:08:20;;;;;;;19.13;12.75;;;16.30;60.10;;;;;;5117532;28;20452;-77
2021/08/20 05:10:45;;;;;;;21.55;13.35;;;16.40;60.00;;;;;;5120065;28;20384;-77
2021/08/20 05:13:11;;;;;;;22.42;12.75;;;16.40;60.50;;;;;;5117099;28;20406;-75
2021/08/20 05:15:36;;;;;;;23.02;13.63;;;16.70;58.20;;;;;;5111695;28;20376;-76
2021/08/20 05:18:02;;;;;;;21.73;11.83;;;16.60;58.20;;;;;;5110907;28;20507;-76
2021/08/20 05:20:29;;;;;;;19.98;12.35;;;16.40;59.20;;;;;;5111541;28;20388;-77
2021/08/20 05:22:56;;;;;;;22.23;13.50;;;16.40;60.50;;;;;;5111603;28;20387;-75
2021/08/20 05:25:23;;;;;;;20.75;13.10;;;16.20;62.90;;;;;;5119302;28;20384;-76
2021/08/20 05:27:50;;;;;;;19.92;12.77;;;16.20;63.20;;;;;;5114233;28;20374;-77
2021/08/20 05:30:17;;;;;;;21.65;12.70;;;16.30;63.60;;;;;;5099283;28;20439;-75
2021/08/20 05:32:42;;;;;;;21.38;13.07;;;16.40;62.80;;;;;;5091563;28;20394;-76
2021/08/20 05:35:10;;;;;;;20.88;12.77;;;16.60;61.90;;;;;;5092716;28;20392;-75
2021/08/20 05:37:36;;;;;;;23.95;12.60;;;16.70;61.70;;;;;;5093917;28;20441;-76
2021/08/20 05:40:04;;;;;;;19.80;12.38;;;16.80;60.70;;;;;;5094820;28;20378;-74
2021/08/20 05:42:29;;;;;;;22.02;13.35;;;17.00;58.90;;;;;;5094363;28;20385;-75
2021/08/20 05:44:55;;;;;;;26.55;13.70;;;17.20;56.60;;;;;;5094354;28;20394;-76
2021/08/20 05:47:21;;;;;;;24.85;13.48;;;17.30;55.90;;;;;;5094903;28;20503;-77
2021/08/20 05:49:47;;;;;;;23.55;14.20;;;17.50;55.30;;;;;;5097768;28;20389;-77
2021/08/20 05:52:13;;;;;;;18.50;12.75;;;17.60;54.70;;;;;;5103820;28;20392;-76
2021/08/20 05:54:38;;;;;;;17.20;11.95;;;17.70;53.70;;;;;;5110762;28;20389;-75
2021/08/20 05:57:04;;;;;;;22.20;13.83;;;17.70;53.50;;;;;;5101413;28;20821;-76
2021/08/20 05:59:30;;;;;;;20.77;12.73;;;17.70;53.80;;;;;;5115075;28;20400;-76
2021/08/20 06:01:55;;;;;;;23.20;13.63;;;17.80;52.90;;;;;;5117262;28;20436;-76
2021/08/20 06:04:21;;;;;;;21.65;12.23;;;17.90;52.80;;;;;;5122331;28;20376;-76
2021/08/20 06:06:46;;;;;;;20.83;12.90;;;17.90;52.30;;;;;;5116903;28;20409;-77
2021/08/20 06:09:12;;;;;;;21.10;14.00;;;17.90;51.80;;;;;;5102658;28;20427;-77
2021/08/20 06:11:37;;;;;;;24.52;13.77;;;17.90;51.70;;;;;;5094790;28;20425;-76
2021/08/20 06:14:03;;;;;;;23.47;13.70;;;18.00;51.60;;;;;;5093356;28;20396;-76
2021/08/20 06:16:28;;;;;;;20.60;12.47;;;18.00;51.50;;;;;;5110204;28;20399;-76
2021/08/20 06:18:54;;;;;;;18.60;11.55;;;18.00;51.70;;;;;;5096548;28;20900;-76
2021/08/20 06:21:19;;;;;;;23.77;13.70;;;18.10;51.50;;;;;;5098931;28;20866;-76
2021/08/20 06:23:45;;;;;;;21.03;13.00;;;18.50;49.60;;;;;;5093229;28;20386;-76
2021/08/20 06:26:11;;;;;;;19.13;12.90;;;18.70;47.40;;;;;;5105740;28;20784;-76
2021/08/20 06:28:36;;;;;;;24.75;13.63;;;18.70;47.40;;;;;;5113273;28;20392;-75
2021/08/20 06:31:04;;;;;;;25.70;13.60;;;18.70;47.70;;;;;;5102508;28;20402;-76
2021/08/20 06:33:31;;;;;;;20.05;13.90;;;18.80;46.80;;;;;;5093258;28;20699;-74
2021/08/20 06:35:57;;;;;;;21.08;13.70;;;18.80;46.90;;;;;;5102399;28;20414;-74
2021/08/20 06:38:23;;;;;;;20.92;13.32;;;18.90;45.80;;;;;;5113014;28;20486;-74
2021/08/20 06:40:48;;;;;;;24.58;12.63;;;19.00;45.60;;;;;;5105244;28;20440;-74
2021/08/20 06:43:14;;;;;;;26.50;14.97;;;19.40;43.50;;;;;;5093060;28;20459;-74
2021/08/20 06:45:40;;;;;;;25.37;14.30;;;19.40;43.00;;;;;;5098813;28;20388;-76
2021/08/20 06:48:06;;;;;;;24.50;14.85;;;19.30;43.80;;;;;;5112823;28;20383;-75
2021/08/20 06:50:31;;;;;;;22.70;13.88;;;19.30;43.30;;;;;;5108884;28;20394;-73
2021/08/20 06:52:57;;;;;;;24.23;13.68;;;19.30;43.70;;;;;;5094500;28;20395;-74
2021/08/20 06:55:23;;;;;;;24.37;14.37;;;19.40;43.60;;;;;;5103606;28;20397;-74
2021/08/20 06:57:48;;;;;;;19.00;13.40;;;19.60;42.30;;;;;;5090996;28;20401;-75
2021/08/20 07:00:14;;;;;;;25.77;14.20;;;19.70;42.10;;;;;;5093321;28;20754;-74
2021/08/20 07:02:44;;;;;;;27.92;14.45;;;19.70;42.00;;;;;;5101036;28;20385;-75
2021/08/20 07:05:12;;;;;;;23.92;14.60;;;20.00;40.50;;;;;;5092498;28;20400;-78
2021/08/20 07:07:38;;;;;;;26.48;15.27;;;20.00;40.10;;;;;;5091974;28;20382;-74
2021/08/20 07:10:15;;;;;;;21.25;14.80;;;19.90;40.70;;;;;;5092903;28;20459;-74
2021/08/20 07:12:41;;;;;;;27.40;14.23;;;20.00;40.80;;;;;;5092618;28;20390;-75
2021/08/20 07:15:08;;;;;;;25.57;15.27;;;19.90;41.80;;;;;;5093409;28;20920;-75
2021/08/20 07:17:34;;;;;;;27.40;15.70;;;19.90;41.20;;;;;;5110750;28;20426;-75
2021/08/20 07:20:01;;;;;;;34.78;15.70;;;20.00;40.60;;;;;;5113110;28;20404;-74
2021/08/20 07:22:26;;;;;;;26.27;14.70;;;20.00;40.80;;;;;;5095640;28;20814;-74
2021/08/20 07:24:53;;;;;;;26.58;15.10;;;20.10;40.70;;;;;;5092601;28;20421;-73
2021/08/20 07:27:19;;;;;;;24.17;14.23;;;20.10;39.90;;;;;;5090595;28;20525;-74
2021/08/20 07:29:46;;;;;;;28.30;14.50;;;20.30;39.30;;;;;;5096042;28;20481;-74
2021/08/20 07:32:11;;;;;;;21.00;13.65;;;20.40;39.00;;;;;;5100023;28;20404;-75
2021/08/20 07:34:37;;;;;;;21.33;13.17;;;20.70;38.40;;;;;;5084806;28;20490;-74
2021/08/20 07:37:04;;;;;;;22.23;13.53;;;20.70;39.00;;;;;;5093569;28;20386;-74
2021/08/20 07:39:30;;;;;;;25.58;14.35;;;20.50;39.00;;;;;;5094780;28;20435;-75
2021/08/20 07:41:56;;;;;;;24.10;14.10;;;20.50;38.80;;;;;;5114037;28;20396;-75
2021/08/20 07:44:22;;;;;;;20.90;13.63;;;20.50;39.30;;;;;;5101236;28;20378;-73
2021/08/20 07:46:48;;;;;;;22.60;14.20;;;20.90;38.00;;;;;;5110714;28;20387;-74
2021/08/20 07:49:14;;;;;;;24.38;14.75;;;20.90;37.90;;;;;;5089654;28;20396;-73
2021/08/20 07:51:40;;;;;;;24.85;15.13;;;20.90;37.20;;;;;;5096711;28;20398;-74
2021/08/20 07:54:06;;;;;;;23.13;13.13;;;20.90;36.80;;;;;;5092822;28;20385;-75
2021/08/20 07:56:32;;;;;;;23.60;14.52;;;21.00;37.10;;;;;;5106028;28;20454;-76
2021/08/20 07:58:57;;;;;;;22.50;13.40;;;21.10;36.50;;;;;;5113111;28;20396;-72
2021/08/20 08:01:23;;;;;;;24.17;13.00;;;21.20;36.30;;;;;;5111675;28;20391;-72
2021/08/20 08:03:48;;;;;;;20.40;13.90;;;21.30;35.10;;;;;;5112236;28;20875;-72
2021/08/20 08:06:14;;;;;;;25.73;13.10;;;21.50;34.80;;;;;;5101778;28;20910;-73
2021/08/20 08:08:41;;;;;;;24.33;13.67;;;21.40;34.60;;;;;;5105720;28;20394;-76
2021/08/20 08:11:08;;;;;;;23.30;13.63;;;21.40;35.70;;;;;;5092909;28;20382;-76
2021/08/20 08:13:33;;;;;;;25.35;12.63;;;21.30;35.10;;;;;;5092488;28;20382;-77
2021/08/20 08:15:59;;;;;;;17.27;12.07;;;21.30;35.00;;;;;;5092532;28;20381;-76
2021/08/20 08:18:25;;;;;;;22.25;13.20;;;21.30;35.10;;;;;;5094033;28;20403;-76
2021/08/20 08:20:51;;;;;;;19.40;12.70;;;21.30;35.00;;;;;;5088738;28;20486;-75
2021/08/20 08:23:16;;;;;;;17.80;11.63;;;21.30;35.00;;;;;;5103921;28;20379;-77
2021/08/20 08:25:42;;;;;;;18.80;11.70;;;21.40;34.30;;;;;;5105837;28;20912;-76
2021/08/20 08:28:08;;;;;;;19.00;11.30;;;21.50;33.70;;;;;;5090981;28;20444;-76
2021/08/20 08:30:37;;;;;;;17.50;10.98;;;21.40;34.10;;;;;;5110010;28;20372;-76
2021/08/20 08:33:04;;;;;;;16.57;9.70;;;21.40;34.10;;;;;;5089550;28;20491;-74
2021/08/20 08:35:29;;;;;;;12.90;9.30;;;21.40;34.50;;;;;;5091146;28;20520;-73
2021/08/20 08:38:10;;;;;;;12.50;8.90;;;21.30;34.60;;;;;;5090323;28;20522;-76
2021/08/20 08:40:38;;;;;;;14.85;9.45;;;21.20;34.90;;;;;;5097835;28;20374;-75
2021/08/20 08:43:05;;;;;;;13.57;8.23;;;21.20;35.30;;;;;;5091115;28;20382;-76
2021/08/20 08:45:44;;;;;;;10.05;7.35;;;21.30;34.50;;;;;;5091080;28;20377;-76
2021/08/20 08:48:11;;;;;;;10.07;7.22;;;21.60;34.20;;;;;;5090707;28;20389;-76
2021/08/20 08:50:38;;;;;;;9.95;7.15;;;21.70;32.20;;;;;;5090437;28;20382;-73
2021/08/20 08:53:04;;;;;;;10.82;7.15;;;21.80;32.40;;;;;;5090929;28;20386;-76
2021/08/20 08:55:30;;;;;;;7.77;5.30;;;21.70;32.20;;;;;;5095665;28;20484;-76
2021/08/20 08:57:56;;;;;;;11.77;5.40;;;21.70;31.90;;;;;;5094442;28;20405;-76
2021/08/20 09:00:30;;;;;;;7.53;5.57;;;21.60;32.60;;;;;;5097778;28;20473;-76
2021/08/20 09:02:56;;;;;;;7.78;5.03;;;21.40;32.90;;;;;;5106396;28;20436;-76
2021/08/20 09:05:22;;;;;;;7.10;4.90;;;21.40;33.10;;;;;;5090829;28;20727;-76
2021/08/20 09:07:53;;;;;;;7.30;4.80;;;21.60;33.00;;;;;;5089964;28;20382;-76
2021/08/20 09:10:24;;;;;;;5.30;4.60;;;21.80;32.70;;;;;;5093166;28;20742;-75
2021/08/20 09:12:50;;;;;;;6.20;4.72;;;22.20;32.00;;;;;;5094805;28;20378;-75
2021/08/20 09:15:18;;;;;;;6.43;4.72;;;22.40;31.10;;;;;;5094784;28;20909;-75
2021/08/20 09:17:55;;;;;;;9.60;4.90;;;22.60;30.10;;;;;;5114695;28;20764;-74
2021/08/20 09:20:22;;;;;;;6.10;4.50;;;22.40;30.20;;;;;;5115003;28;20384;-75
2021/08/20 09:22:49;;;;;;;7.18;4.78;;;22.20;30.60;;;;;;5114873;28;20376;-75
2021/08/20 09:25:48;;;;;;;6.13;4.53;;;22.00;31.80;;;;;;5112822;28;20558;-76
2021/08/20 09:28:15;;;;;;;7.82;4.90;;;22.00;31.40;;;;;;5079987;28;20403;-75
2021/08/20 09:30:59;;;;;;;6.47;5.05;;;21.90;31.60;;;;;;5115035;28;20392;-75
2021/08/20 09:33:35;;;;;;;8.27;4.80;;;22.00;32.00;;;;;;5105936;28;20401;-75
2021/08/20 09:36:12;;;;;;;5.90;4.87;;;22.40;31.70;;;;;;5095775;28;20394;-76
2021/08/20 09:38:47;;;;;;;9.05;4.00;;;22.80;29.60;;;;;;5094358;28;20441;-74
2021/08/20 09:41:16;;;;;;;5.70;4.50;;;23.10;28.30;;;;;;5077574;28;20746;-75
2021/08/20 09:43:46;;;;;;;9.48;5.20;;;23.10;28.50;;;;;;5103251;28;20477;-75
2021/08/20 09:46:16;;;;;;;7.10;5.43;;;22.90;28.80;;;;;;5114000;28;20385;-73
2021/08/20 09:48:52;;;;;;;7.70;6.90;;;22.30;33.50;;;;;;5090638;28;20408;-74
2021/08/20 09:51:41;;;;;;;7.13;6.43;;;21.60;37.60;;;;;;5094219;28;20374;-75
2021/08/20 09:54:18;;;;;;;9.18;7.38;;;20.90;43.20;;;;;;5103124;28;20729;-75
2021/08/20 09:56:44;;;;;;;10.00;7.35;;;20.50;46.30;;;;;;5114286;28;20406;-75
2021/08/20 09:59:11;;;;;;;9.40;7.28;;;20.50;48.60;;;;;;5112528;28;20435;-75
2021/08/20 10:01:47;;;;;;;11.35;7.10;;;20.80;47.70;;;;;;5096063;28;20382;-74
2021/08/20 10:04:16;;;;;;;5.82;5.22;;;21.30;44.90;;;;;;5092033;28;20765;-74
2021/08/20 10:06:46;;;;;;;5.30;4.80;;;21.90;39.20;;;;;;5075625;28;20400;-76
2021/08/20 10:09:13;;;;;;;6.47;5.87;;;22.50;38.50;;;;;;5098808;28;20414;-75
2021/08/20 10:12:00;;;;;;;5.53;4.10;;;23.00;36.30;;;;;;5095503;28;20439;-76
2021/08/20 10:14:29;;;;;;;6.38;3.90;;;23.40;34.20;;;;;;5095084;28;20390;-75
2021/08/20 10:16:54;;;;;;;5.35;3.65;;;23.20;33.50;;;;;;5093613;28;20414;-74
2021/08/20 10:19:20;;;;;;;4.57;2.80;;;22.80;35.20;;;;;;5093814;28;20454;-74
2021/08/20 10:21:46;;;;;;;2.40;2.20;;;22.50;37.20;;;;;;5092954;28;20745;-74
2021/08/20 10:24:13;;;;;;;2.50;2.10;;;22.10;36.40;;;;;;5091616;28;20398;-74
2021/08/20 10:26:43;;;;;;;2.70;2.50;;;22.00;37.60;;;;;;5093523;28;20378;-75
2021/08/20 10:29:10;;;;;;;2.92;2.00;;;22.00;36.90;;;;;;5104820;28;20421;-75
2021/08/20 10:31:37;;;;;;;1.80;1.70;;;22.20;35.70;;;;;;5100158;28;20748;-75
2021/08/20 10:34:32;;;;;;;1.92;1.60;;;22.30;34.20;;;;;;5083290;28;20831;-75
2021/08/20 10:37:13;;;;;;;1.65;1.55;;;22.50;33.60;;;;;;5093862;28;20394;-76
2021/08/20 10:39:50;;;;;;;1.30;1.17;;;22.70;32.70;;;;;;5096511;28;20431;-75
2021/08/20 10:42:17;;;;;;;1.50;1.30;;;22.70;31.50;;;;;;5113700;28;20373;-75
2021/08/20 10:44:45;;;;;;;4.60;1.27;;;22.80;30.90;;;;;;5109467;28;20397;-75
2021/08/20 10:47:24;;;;;;;1.40;1.30;;;22.80;30.50;;;;;;5091299;28;20461;-74
2021/08/20 10:50:04;;;;;;;1.50;1.40;;;22.90;29.30;;;;;;5090552;28;20389;-74
2021/08/20 10:52:30;;;;;;;1.75;1.63;;;23.10;30.60;;;;;;5092770;28;20389;-74
2021/08/20 10:54:56;;;;;;;2.20;1.60;;;23.20;29.90;;;;;;5094205;28;20762;-75
2021/08/20 10:57:34;;;;;;;1.50;1.40;;;23.10;28.60;;;;;;5092126;28;20378;-72
2021/08/20 11:00:00;;;;;;;2.00;1.40;;;22.80;30.80;;;;;;5094340;28;20396;-73
2021/08/20 11:02:25;;;;;;;1.80;1.70;;;22.80;31.70;;;;;;5113779;28;20526;-73
2021/08/20 11:05:06;;;;;;;1.83;1.60;;;22.90;30.80;;;;;;5101698;28;20418;-79
2021/08/20 11:07:37;;;;;;;1.70;1.60;;;22.90;31.60;;;;;;5108947;28;20397;-75
2021/08/20 11:10:08;;;;;;;1.50;1.40;;;23.10;31.90;;;;;;5107577;28;20396;-72
2021/08/20 11:12:38;;;;;;;1.70;1.35;;;23.30;28.20;;;;;;5109813;28;20399;-74
2021/08/20 11:17:51;;;;;;;1.70;1.60;;;23.70;28.70;;;;;;5092000;28;20478;-73
2021/08/20 11:20:27;;;;;;;3.40;1.50;;;24.20;27.10;;;;;;5091586;28;20435;-74
2021/08/20 11:23:05;;;;;;;2.30;1.30;;;24.70;25.80;;;;;;5096147;28;20388;-73
2021/08/20 11:25:48;;;;;;;3.03;1.77;;;25.20;24.20;;;;;;5112296;28;20849;-73
2021/08/20 11:28:33;;;;;;;2.08;1.90;;;25.30;23.50;;;;;;5106149;28;20396;-75
2021/08/20 11:31:03;;;;;;;1.90;1.40;;;25.30;24.20;;;;;;5090073;28;20384;-74
2021/08/20 11:33:31;;;;;;;1.70;1.60;;;25.30;22.20;;;;;;5095516;28;20401;-76
2021/08/20 11:36:05;;;;;;;2.90;1.60;;;25.40;22.30;;;;;;5091637;28;20401;-74
2021/08/20 11:38:33;;;;;;;4.32;2.25;;;25.50;22.20;;;;;;5072216;28;20481;-75
2021/08/20 11:43:59;;;;;;;2.55;1.60;;;25.60;21.90;;;;;;5087742;28;20775;-76
2021/08/20 11:46:30;;;;;;;2.00;1.60;;;25.70;21.70;;;;;;5112462;28;20407;-78
2021/08/20 11:48:58;;;;;;;4.25;1.63;;;25.70;21.20;;;;;;5093605;28;20805;-76
2021/08/20 11:51:31;;;;;;;1.60;1.50;;;25.50;21.30;;;;;;5112060;28;20387;-76
2021/08/20 11:53:58;;;;;;;3.60;1.63;;;25.20;22.40;;;;;;5112011;28;20452;-75
2021/08/20 11:56:25;;;;;;;1.90;1.50;;;24.90;22.90;;;;;;5111967;28;20949;-76
2021/08/20 11:58:50;;;;;;;7.70;2.20;;;24.90;23.20;;;;;;5111204;28;21062;-76
2021/08/20 12:01:27;;;;;;;1.70;1.53;;;25.20;22.30;;;;;;5110348;28;20381;-75
2021/08/20 12:03:58;;;;;;;1.98;1.50;;;24.80;22.80;;;;;;5092954;28;20391;-76
2021/08/20 12:06:24;;;;;;;2.05;1.50;;;24.50;23.60;;;;;;5111087;28;20903;-76
2021/08/20 12:08:52;;;;;;;2.40;2.20;;;24.20;23.60;;;;;;5111543;28;20533;-76
2021/08/20 12:11:22;;;;;;;2.15;2.05;;;24.30;24.40;;;;;;5092956;28;20725;-74
2021/08/20 12:13:50;;;;;;;1.80;1.70;;;24.20;24.30;;;;;;5111206;28;20461;-78
2021/08/20 12:16:41;;;;;;;3.10;1.90;;;24.20;24.70;;;;;;5111731;28;20861;-75
2021/08/20 12:19:26;;;;;;;1.98;1.88;;;24.30;25.00;;;;;;5111328;28;20764;-75
2021/08/20 12:21:54;;;;;;;2.73;2.10;;;24.50;24.20;;;;;;5092484;28;20833;-77
2021/08/20 12:24:34;;;;;;;2.33;2.13;;;24.70;24.20;;;;;;5111290;28;20919;-77
2021/08/20 12:27:13;;;;;;;2.30;2.10;;;24.90;23.70;;;;;;5111072;28;20376;-77
2021/08/20 12:29:39;;;;;;;2.92;2.20;;;25.00;23.20;;;;;;5110685;28;20471;-76
2021/08/20 12:32:05;;;;;;;3.30;2.40;;;24.90;22.10;;;;;;5112066;28;20488;-76
2021/08/20 12:34:32;;;;;;;2.17;2.07;;;24.70;22.90;;;;;;5093216;28;20393;-76
2021/08/20 12:37:01;;;;;;;3.00;1.98;;;24.70;23.00;;;;;;5090974;28;20392;-76
2021/08/20 12:39:35;;;;;;;2.60;2.33;;;24.90;23.00;;;;;;5091595;28;20875;-76
2021/08/20 12:42:20;;;;;;;2.40;2.03;;;25.10;22.50;;;;;;5091667;28;20381;-77
2021/08/20 12:44:46;;;;;;;2.60;2.00;;;25.50;21.30;;;;;;5076760;28;20434;-78